RYR79Y EGBB-LEPA
Flight info
| Callsign | RYR79Y |
|---|---|
| Flight time | N/A |
| Altitude | 39000 |
| Route | ADMEX Y321 CPT UN859 SOPIL DCT BALAN DCT EVPOK DCT NARAK DCT GAI DCT LOMRA DCT ROCAN DCT IBRAP N13 LORES |
| Aircraft | B38M/M-SDE1FGHILORVWXY/HB1 |
Departure
| Time | 2026-04-29 11:05 |
|---|---|
| Airport | Birmingham Airport (EGBB) |
Arrival
| Time | N/A |
|---|---|
| Airport | Palma de Mallorca Airport (LEPA) |
| Time | Latitude | Longitude | Altitude | Speed | Heading |
|---|---|---|---|---|---|
| 2026-04-29 10:36 | 52.45311 | -1.73735 | 324 ft | 0 kts | 146° |
| 2026-04-29 10:56 | 52.45324 | -1.73750 | 323 ft | 4 kts | 146° |
| 2026-04-29 10:56 | 52.45343 | -1.73771 | 324 ft | 3 kts | 147° |
| 2026-04-29 10:56 | 52.45366 | -1.73788 | 322 ft | 4 kts | 173° |
| 2026-04-29 10:56 | 52.45390 | -1.73782 | 323 ft | 4 kts | 214° |
| 2026-04-29 10:57 | 52.45401 | -1.73766 | 324 ft | 3 kts | 236° |
| 2026-04-29 10:57 | 52.45388 | -1.73797 | 323 ft | 1 kts | 236° |
| 2026-04-29 11:00 | 52.45387 | -1.73798 | 326 ft | 1 kts | 236° |
| 2026-04-29 11:00 | 52.45373 | -1.73833 | 325 ft | 7 kts | 236° |
| 2026-04-29 11:00 | 52.45326 | -1.73945 | 325 ft | 14 kts | 236° |
| 2026-04-29 11:00 | 52.45267 | -1.73958 | 326 ft | 10 kts | 150° |
| 2026-04-29 11:01 | 52.45178 | -1.73861 | 322 ft | 19 kts | 145° |
| 2026-04-29 11:01 | 52.45052 | -1.73754 | 326 ft | 22 kts | 161° |
| 2026-04-29 11:01 | 52.44920 | -1.73643 | 326 ft | 20 kts | 185° |
| 2026-04-29 11:01 | 52.44785 | -1.73704 | 325 ft | 14 kts | 196° |
| 2026-04-29 11:02 | 52.44686 | -1.73702 | 325 ft | 16 kts | 148° |
| 2026-04-29 11:02 | 52.44591 | -1.73596 | 325 ft | 18 kts | 146° |
| 2026-04-29 11:02 | 52.44478 | -1.73469 | 324 ft | 20 kts | 148° |
| 2026-04-29 11:02 | 52.44366 | -1.73444 | 323 ft | 18 kts | 233° |
| 2026-04-29 11:03 | 52.44318 | -1.73604 | 325 ft | 11 kts | 289° |
| 2026-04-29 11:03 | 52.44364 | -1.73667 | 327 ft | 7 kts | 324° |
| 2026-04-29 11:03 | 52.44372 | -1.73676 | 327 ft | 0 kts | 326° |
| 2026-04-29 11:04 | 52.44382 | -1.73687 | 327 ft | 8 kts | 326° |
| 2026-04-29 11:04 | 52.44639 | -1.73972 | 328 ft | 87 kts | 326° |
| 2026-04-29 11:04 | 52.45350 | -1.74759 | 326 ft | 157 kts | 325° |
| 2026-04-29 11:04 | 52.45966 | -1.75497 | 569 ft | 169 kts | 326° |
| 2026-04-29 11:05 | 52.46893 | -1.76646 | 1520 ft | 164 kts | 332° |
| 2026-04-29 11:05 | 52.48262 | -1.78112 | 2386 ft | 192 kts | 338° |
| 2026-04-29 11:05 | 52.49098 | -1.78905 | 2697 ft | 217 kts | 338° |
| 2026-04-29 11:05 | 52.50526 | -1.80088 | 3398 ft | 231 kts | 348° |
| 2026-04-29 11:06 | 52.52070 | -1.80462 | 4357 ft | 226 kts | 18° |
| 2026-04-29 11:06 | 52.53359 | -1.79290 | 5311 ft | 205 kts | 62° |
| 2026-04-29 11:06 | 52.53826 | -1.77115 | 6201 ft | 208 kts | 86° |
| 2026-04-29 11:06 | 52.53793 | -1.74693 | 6984 ft | 223 kts | 96° |
| 2026-04-29 11:07 | 52.53562 | -1.72060 | 7349 ft | 238 kts | 101° |
| 2026-04-29 11:07 | 52.53208 | -1.69360 | 7772 ft | 246 kts | 103° |
| 2026-04-29 11:07 | 52.52710 | -1.66658 | 7741 ft | 250 kts | 118° |
| 2026-04-29 11:07 | 52.51502 | -1.64601 | 7706 ft | 255 kts | 136° |
| 2026-04-29 11:08 | 52.50209 | -1.62633 | 8396 ft | 255 kts | 133° |
| 2026-04-29 11:08 | 52.48961 | -1.60661 | 9545 ft | 256 kts | 133° |
| 2026-04-29 11:08 | 52.47669 | -1.58600 | 10488 ft | 262 kts | 133° |
| 2026-04-29 11:08 | 52.46349 | -1.56503 | 11372 ft | 269 kts | 136° |
| 2026-04-29 11:09 | 52.44671 | -1.54886 | 11884 ft | 295 kts | 156° |
| 2026-04-29 11:09 | 52.42574 | -1.54125 | 12343 ft | 320 kts | 164° |
| 2026-04-29 11:09 | 52.40387 | -1.53288 | 12898 ft | 333 kts | 162° |
| 2026-04-29 11:09 | 52.38092 | -1.52424 | 13673 ft | 340 kts | 163° |
| 2026-04-29 11:10 | 52.35767 | -1.51577 | 14564 ft | 344 kts | 163° |
| 2026-04-29 11:10 | 52.33413 | -1.50738 | 15385 ft | 348 kts | 163° |
| 2026-04-29 11:10 | 52.31209 | -1.49962 | 16154 ft | 351 kts | 163° |
| 2026-04-29 11:10 | 52.28773 | -1.49112 | 16952 ft | 355 kts | 162° |
| 2026-04-29 11:11 | 52.26341 | -1.48266 | 17772 ft | 359 kts | 162° |
| 2026-04-29 11:11 | 52.23887 | -1.47415 | 18524 ft | 363 kts | 162° |
| 2026-04-29 11:11 | 52.21400 | -1.46553 | 19126 ft | 369 kts | 162° |
| 2026-04-29 11:11 | 52.18881 | -1.45682 | 19285 ft | 369 kts | 162° |
| 2026-04-29 11:12 | 52.16399 | -1.44824 | 19713 ft | 370 kts | 162° |
| 2026-04-29 11:12 | 52.13883 | -1.43952 | 20449 ft | 370 kts | 161° |
| 2026-04-29 11:12 | 52.11446 | -1.42664 | 21067 ft | 367 kts | 150° |
| 2026-04-29 11:12 | 52.09142 | -1.40845 | 21703 ft | 370 kts | 150° |
| 2026-04-29 11:13 | 52.06796 | -1.39057 | 22359 ft | 372 kts | 150° |
| 2026-04-29 11:13 | 52.04435 | -1.37284 | 23000 ft | 375 kts | 151° |
| 2026-04-29 11:13 | 52.02049 | -1.35510 | 23587 ft | 377 kts | 151° |
| 2026-04-29 11:13 | 51.99663 | -1.33746 | 24208 ft | 378 kts | 151° |
| 2026-04-29 11:14 | 51.97253 | -1.31967 | 24714 ft | 381 kts | 151° |
| 2026-04-29 11:14 | 51.94835 | -1.30186 | 25214 ft | 384 kts | 150° |
| 2026-04-29 11:14 | 51.92388 | -1.28386 | 25713 ft | 386 kts | 150° |
| 2026-04-29 11:14 | 51.89961 | -1.26603 | 26186 ft | 389 kts | 150° |
| 2026-04-29 11:15 | 51.87487 | -1.24788 | 26649 ft | 391 kts | 150° |
| 2026-04-29 11:15 | 51.85001 | -1.22966 | 27127 ft | 394 kts | 150° |
| 2026-04-29 11:15 | 51.82487 | -1.21125 | 27579 ft | 397 kts | 150° |
| 2026-04-29 11:15 | 51.79962 | -1.19279 | 28058 ft | 399 kts | 150° |
| 2026-04-29 11:16 | 51.77417 | -1.17422 | 28465 ft | 403 kts | 151° |
| 2026-04-29 11:16 | 51.74849 | -1.15549 | 28869 ft | 406 kts | 150° |
| 2026-04-29 11:16 | 51.72271 | -1.13671 | 29299 ft | 408 kts | 150° |
| 2026-04-29 11:16 | 51.69671 | -1.11779 | 29725 ft | 411 kts | 150° |
| 2026-04-29 11:17 | 51.67058 | -1.09881 | 30140 ft | 413 kts | 150° |
| 2026-04-29 11:17 | 51.64433 | -1.07976 | 30506 ft | 415 kts | 150° |
| 2026-04-29 11:17 | 51.61786 | -1.06058 | 30833 ft | 418 kts | 150° |
| 2026-04-29 11:17 | 51.59124 | -1.04132 | 31168 ft | 420 kts | 151° |
| 2026-04-29 11:18 | 51.56458 | -1.02204 | 31609 ft | 420 kts | 151° |
| 2026-04-29 11:18 | 51.53828 | -1.00304 | 31967 ft | 422 kts | 152° |
| 2026-04-29 11:18 | 51.51141 | -0.98367 | 32347 ft | 423 kts | 152° |
| 2026-04-29 11:18 | 51.48458 | -0.96435 | 32811 ft | 422 kts | 152° |
| 2026-04-29 11:19 | 51.45781 | -0.94510 | 33238 ft | 421 kts | 152° |
| 2026-04-29 11:19 | 51.43109 | -0.92590 | 33683 ft | 420 kts | 152° |
| 2026-04-29 11:19 | 51.40445 | -0.90679 | 34138 ft | 419 kts | 152° |
| 2026-04-29 11:19 | 51.37779 | -0.88769 | 34547 ft | 419 kts | 152° |
| 2026-04-29 11:20 | 51.35122 | -0.86868 | 34878 ft | 419 kts | 152° |
| 2026-04-29 11:20 | 51.32455 | -0.84962 | 35211 ft | 420 kts | 153° |
| 2026-04-29 11:20 | 51.29770 | -0.83046 | 35422 ft | 423 kts | 154° |
| 2026-04-29 11:20 | 51.27111 | -0.81151 | 35682 ft | 425 kts | 154° |
| 2026-04-29 11:21 | 51.24405 | -0.79225 | 35993 ft | 426 kts | 154° |
| 2026-04-29 11:21 | 51.21698 | -0.77300 | 36356 ft | 425 kts | 154° |
| 2026-04-29 11:21 | 51.18993 | -0.75379 | 36680 ft | 425 kts | 154° |
| 2026-04-29 11:21 | 51.16287 | -0.73462 | 36954 ft | 426 kts | 154° |
| 2026-04-29 11:22 | 51.13581 | -0.71545 | 37195 ft | 427 kts | 154° |
| 2026-04-29 11:22 | 51.10862 | -0.69621 | 37505 ft | 427 kts | 154° |
| 2026-04-29 11:22 | 51.08149 | -0.67706 | 37850 ft | 426 kts | 154° |
| 2026-04-29 11:22 | 51.05450 | -0.65801 | 38185 ft | 425 kts | 154° |
| 2026-04-29 11:23 | 51.02740 | -0.63892 | 38422 ft | 426 kts | 154° |
| 2026-04-29 11:23 | 51.00034 | -0.61988 | 38656 ft | 426 kts | 154° |
| 2026-04-29 11:23 | 50.97327 | -0.60086 | 38979 ft | 424 kts | 154° |
| 2026-04-29 11:23 | 50.94632 | -0.58196 | 39173 ft | 424 kts | 154° |
| 2026-04-29 11:24 | 50.91921 | -0.56296 | 39215 ft | 426 kts | 154° |
| 2026-04-29 11:24 | 50.86503 | -0.52506 | 39227 ft | 426 kts | 154° |
| 2026-04-29 11:25 | 50.81086 | -0.48727 | 39200 ft | 425 kts | 154° |
| 2026-04-29 11:25 | 50.75668 | -0.44956 | 39209 ft | 426 kts | 155° |
| 2026-04-29 11:26 | 50.67506 | -0.39293 | 39207 ft | 424 kts | 154° |
| 2026-04-29 11:26 | 50.62116 | -0.35566 | 39218 ft | 426 kts | 155° |
| 2026-04-29 11:27 | 50.56718 | -0.31841 | 39202 ft | 422 kts | 155° |
| 2026-04-29 11:27 | 50.51328 | -0.28132 | 39200 ft | 425 kts | 155° |
| 2026-04-29 11:28 | 50.45891 | -0.24401 | 39198 ft | 425 kts | 155° |
| 2026-04-29 11:28 | 50.40467 | -0.20688 | 39193 ft | 427 kts | 156° |
| 2026-04-29 11:29 | 50.35038 | -0.16980 | 39185 ft | 423 kts | 156° |
| 2026-04-29 11:29 | 50.29652 | -0.13311 | 39175 ft | 419 kts | 156° |
| 2026-04-29 11:30 | 50.24311 | -0.09681 | 39190 ft | 421 kts | 156° |
| 2026-04-29 11:30 | 50.18952 | -0.06049 | 39179 ft | 418 kts | 156° |